This is the latest recevied weather packets stored in our database for station/object WD7OO. If no packets are shown the sender has not sent any weather packets the latest 1 day(s).
| Time | Temp. | Humidity | Pressure | Rain* | Wind** | Luminosity | Snow |
|---|---|---|---|---|---|---|---|
| 1778018126 | 11.11° C | 55% | 1009.5 hPa | 0 mm | 0.45 m/s, 311° | 59 W/m² | - |
| 1778017815 | 11.11° C | 55% | 1009.5 hPa | 0 mm | 0.89 m/s, 308° | 74 W/m² | - |
| 1778017514 | 11.11° C | 53% | 1009.6 hPa | 0 mm | 0.89 m/s, 288° | 89 W/m² | - |
| 1778017210 | 11.11° C | 51% | 1009.5 hPa | 0 mm | 1.34 m/s, 295° | 93 W/m² | - |
| 1778016908 | 11.11° C | 53% | 1009.5 hPa | 0 mm | 0.45 m/s, 324° | 119 W/m² | - |
| 1778016604 | 11.11° C | 50% | 1009.6 hPa | 0 mm | 1.34 m/s, 266° | 129 W/m² | - |
| 1778016300 | 11.11° C | 53% | 1009.6 hPa | 0 mm | 0.45 m/s, 311° | 117 W/m² | - |
| 1778015997 | 11.11° C | 52% | 1009.6 hPa | 0 mm | 0 m/s | 111 W/m² | - |
| 1778015694 | 11.11° C | 54% | 1009.7 hPa | 0 mm | 0 m/s | 109 W/m² | - |
| 1778015385 | 11.11° C | 54% | 1009.7 hPa | 0 mm | 0.45 m/s, 337° | 119 W/m² | - |
| 1778015082 | 11.11° C | 52% | 1009.7 hPa | 0 mm | 0.89 m/s, 312° | 117 W/m² | - |
| 1778014779 | 11.11° C | 52% | 1009.7 hPa | 0 mm | 0.45 m/s, 295° | 132 W/m² | - |
| 1778014478 | 11.11° C | 54% | 1009.4 hPa | 0 mm | 0.45 m/s, 301° | 121 W/m² | - |
| 1778014174 | 11.11° C | 51% | 1009.6 hPa | 0 mm | 0.45 m/s, 285° | 142 W/m² | - |
| 1778013872 | 11.11° C | 50% | 1009.3 hPa | 0 mm | 1.34 m/s, 312° | 155 W/m² | - |
| 1778013569 | 11.67° C | 51% | 1009.3 hPa | 0 mm | 0.45 m/s, 340° | 153 W/m² | - |
| 1778013265 | 11.67° C | 52% | 1009.2 hPa | 0 mm | 0.45 m/s, 310° | 159 W/m² | - |
| 1778012962 | 11.67° C | 52% | 1009.4 hPa | 0 mm | 0.89 m/s, 223° | 158 W/m² | - |
| 1778012658 | 11.67° C | 53% | 1009.6 hPa | 0 mm | 0.45 m/s, 323° | 163 W/m² | - |
| 1778012355 | 11.67° C | 54% | 1009.6 hPa | 0 mm | 0.45 m/s, 321° | 188 W/m² | - |
| 1778012052 | 12.22° C | 51% | 1009.4 hPa | 0 mm | 0.45 m/s, 301° | 211 W/m² | - |
| 1778011750 | 11.67° C | 53% | 1009.2 hPa | 0 mm | 0.45 m/s, 335° | 225 W/m² | - |
| 1778011447 | 12.22° C | 49% | 1009.5 hPa | 0 mm | 2.24 m/s, 298° | 244 W/m² | - |
| 1778011142 | 12.22° C | 52% | 1009.2 hPa | 0 mm | 0.45 m/s, 301° | 272 W/m² | - |
| 1778010840 | 12.78° C | 49% | 1009.6 hPa | 0 mm | 0.45 m/s, 347° | 294 W/m² | - |
* Rain latest hour (hover to see other rain measurements)
** Current wind speed in m/s (hover to see current wind gust speed)